Time;durP1;ratioP1;P1;durP2;ratioP2;P2;SDS_P1;SDS_P2;PMS_P1;PMS_P2;Temp;Humidity;BMP_temperature;BMP_pressure;BME280_temperature;BME280_humidity;BME280_pressure;Samples;Min_cycle;Max_cycle;Signal;HPM_P1;HPM_P2
2021/07/09 00:01:24;;;;;;;32.55;28.88;;;;;;;16.84;100.00;101683.44;4945985;28;20101;-80
2021/07/09 00:03:49;;;;;;;31.63;28.33;;;;;;;16.82;100.00;101676.53;4923684;28;20050;-79
2021/07/09 00:06:17;;;;;;;33.58;30.02;;;;;;;16.86;100.00;101675.97;4948516;28;20142;-80
2021/07/09 00:08:42;;;;;;;34.25;30.50;;;;;;;16.87;100.00;101665.97;4957030;28;20145;-81
2021/07/09 00:11:07;;;;;;;38.13;31.67;;;;;;;16.86;100.00;101675.09;4943960;28;20053;-81
2021/07/09 00:13:33;;;;;;;36.70;30.25;;;;;;;16.85;100.00;101668.84;4959317;28;20073;-83
2021/07/09 00:15:59;;;;;;;35.75;31.85;;;;;;;16.88;100.00;101667.66;4957048;28;20496;-81
2021/07/09 00:18:24;;;;;;;37.22;31.38;;;;;;;16.87;100.00;101669.53;4919012;28;20053;-79
2021/07/09 00:20:50;;;;;;;37.80;32.72;;;;;;;16.87;100.00;101674.94;4959308;28;20484;-83
2021/07/09 00:23:15;;;;;;;37.30;32.03;;;;;;;16.90;100.00;101674.56;4959960;28;20058;-79
2021/07/09 00:25:41;;;;;;;34.45;30.70;;;;;;;16.93;100.00;101684.22;4944022;28;20492;-82
2021/07/09 00:28:06;;;;;;;36.70;29.65;;;;;;;16.97;100.00;101692.81;4939755;28;20035;-81
2021/07/09 00:30:32;;;;;;;35.83;29.55;;;;;;;16.98;100.00;101694.50;4953827;28;20046;-82
2021/07/09 00:32:58;;;;;;;34.42;30.30;;;;;;;16.95;100.00;101684.03;4959067;28;20043;-83
2021/07/09 00:35:23;;;;;;;34.70;29.77;;;;;;;16.97;100.00;101682.81;4960912;28;20054;-78
2021/07/09 00:37:49;;;;;;;34.00;29.75;;;;;;;16.97;100.00;101669.25;4960915;28;20043;-80
2021/07/09 00:40:15;;;;;;;36.05;30.85;;;;;;;16.97;100.00;101671.13;4934875;28;20043;-81
2021/07/09 00:42:40;;;;;;;35.55;30.55;;;;;;;16.97;100.00;101671.13;4957461;28;20082;-80
2021/07/09 00:45:08;;;;;;;36.72;30.50;;;;;;;16.96;100.00;101664.03;4958998;28;20281;-80
2021/07/09 00:47:34;;;;;;;35.58;29.45;;;;;;;16.95;100.00;101662.34;4943913;28;20543;-80
2021/07/09 00:50:00;;;;;;;38.42;31.58;;;;;;;16.96;100.00;101654.00;4959303;28;20042;-80
2021/07/09 00:52:26;;;;;;;37.83;30.50;;;;;;;16.96;100.00;101654.00;4960759;28;20113;-81
2021/07/09 00:54:52;;;;;;;37.92;30.40;;;;;;;16.99;100.00;101652.81;4955170;28;20058;-80
2021/07/09 00:57:17;;;;;;;39.40;29.83;;;;;;;16.97;100.00;101644.84;4961702;28;20348;-82
2021/07/09 00:59:43;;;;;;;42.95;30.92;;;;;;;16.95;100.00;101644.22;4959940;28;20050;-79
2021/07/09 01:02:09;;;;;;;36.50;29.17;;;;;;;16.96;100.00;101642.34;4936566;28;20454;-81
2021/07/09 01:04:35;;;;;;;38.55;30.70;;;;;;;16.94;100.00;101642.50;4943380;28;20034;-80
2021/07/09 01:07:01;;;;;;;38.88;31.25;;;;;;;16.94;100.00;101633.53;4957840;28;20098;-82
2021/07/09 01:09:26;;;;;;;37.42;29.50;;;;;;;16.95;100.00;101635.25;4943669;28;20039;-81
2021/07/09 01:11:52;;;;;;;38.78;29.65;;;;;;;16.96;100.00;101640.47;4958157;28;20059;-82
2021/07/09 01:14:19;;;;;;;38.30;30.02;;;;;;;16.95;100.00;101635.25;4959996;28;20571;-80
2021/07/09 01:16:45;;;;;;;37.50;29.40;;;;;;;16.96;100.00;101628.78;4941041;28;20090;-81
2021/07/09 01:19:15;;;;;;;38.72;29.55;;;;;;;16.97;100.00;101634.00;4955304;28;20093;-80
2021/07/09 01:21:44;;;;;;;36.97;29.38;;;;;;;16.98;100.00;101643.00;4942362;28;20554;-81
2021/07/09 01:24:11;;;;;;;36.22;27.92;;;;;;;16.94;100.00;101638.97;4948953;28;20480;-79
2021/07/09 01:26:39;;;;;;;38.20;29.73;;;;;;;16.96;100.00;101642.34;4957843;28;20162;-80
2021/07/09 01:29:05;;;;;;;39.35;30.20;;;;;;;16.91;100.00;101641.00;4920411;28;20051;-81
2021/07/09 01:31:31;;;;;;;35.88;29.77;;;;;;;16.93;100.00;101632.69;4957908;28;20102;-80
2021/07/09 01:33:57;;;;;;;37.35;29.02;;;;;;;16.95;100.00;101633.38;4948187;28;20592;-82
2021/07/09 01:36:23;;;;;;;37.33;28.13;;;;;;;16.96;100.00;101628.78;4959627;28;20121;-80
2021/07/09 01:38:49;;;;;;;35.38;28.52;;;;;;;16.97;100.00;101638.59;4953402;28;20105;-82
2021/07/09 01:41:16;;;;;;;38.00;29.40;;;;;;;16.97;100.00;101639.41;4954139;28;20066;-81
2021/07/09 01:43:42;;;;;;;37.97;30.38;;;;;;;16.98;100.00;101634.88;4937785;28;20078;-82
2021/07/09 01:46:07;;;;;;;34.80;31.02;;;;;;;16.97;100.00;101641.28;4936419;28;20459;-82
2021/07/09 01:48:34;;;;;;;40.50;32.15;;;;;;;16.96;100.00;101631.50;4942441;28;20565;-82
2021/07/09 01:51:00;;;;;;;40.00;31.75;;;;;;;16.92;100.00;101631.88;4957469;28;20194;-82
2021/07/09 01:53:25;;;;;;;40.22;31.75;;;;;;;16.90;100.00;101625.78;4962266;28;20125;-81
2021/07/09 01:55:50;;;;;;;40.45;32.33;;;;;;;16.88;100.00;101633.25;4931856;28;20047;-80
2021/07/09 01:58:16;;;;;;;38.40;30.83;;;;;;;16.85;100.00;101630.91;4926506;29;20345;-81
2021/07/09 02:00:41;;;;;;;38.17;29.30;;;;;;;16.81;100.00;101634.19;4922473;29;20528;-80
2021/07/09 02:03:07;;;;;;;39.83;31.58;;;;;;;16.78;100.00;101638.09;4930577;29;20501;-78
2021/07/09 02:05:32;;;;;;;42.85;31.75;;;;;;;16.78;100.00;101626.44;4940680;29;20047;-81
2021/07/09 02:07:58;;;;;;;39.50;31.15;;;;;;;16.77;100.00;101636.41;4938486;28;20396;-82
2021/07/09 02:10:27;;;;;;;42.85;32.15;;;;;;;16.73;100.00;101643.19;4922252;29;20508;-82
2021/07/09 02:12:54;;;;;;;41.63;32.40;;;;;;;16.75;100.00;101641.16;4939978;29;20142;-81
2021/07/09 02:15:24;;;;;;;39.25;32.75;;;;;;;16.79;100.00;101641.66;4940067;29;20435;-80
2021/07/09 02:17:49;;;;;;;44.78;33.05;;;;;;;16.79;100.00;101642.50;4936101;29;20047;-81
2021/07/09 02:20:18;;;;;;;39.92;33.00;;;;;;;16.79;100.00;101636.22;4935318;29;20548;-79
2021/07/09 02:22:45;;;;;;;40.72;32.05;;;;;;;16.78;100.00;101638.09;4931399;28;20042;-80
2021/07/09 02:25:12;;;;;;;40.67;32.25;;;;;;;16.77;100.00;101638.28;4917058;29;20098;-79
2021/07/09 02:27:47;;;;;;;44.88;31.67;;;;;;;16.77;100.00;101633.69;4933461;28;20051;-80
2021/07/09 02:30:13;;;;;;;40.20;30.75;;;;;;;16.77;100.00;101619.31;4959910;28;20051;-82
2021/07/09 02:32:40;;;;;;;43.92;33.08;;;;;;;16.76;100.00;101631.16;4961806;28;20397;-80
2021/07/09 02:35:08;;;;;;;41.47;31.65;;;;;;;16.73;100.00;101616.09;4961488;28;20037;-81
2021/07/09 02:37:33;;;;;;;43.80;31.73;;;;;;;16.72;100.00;101622.56;4944970;28;20128;-82
2021/07/09 02:39:59;;;;;;;45.30;32.95;;;;;;;16.72;100.00;101629.84;4940305;28;20127;-80
2021/07/09 02:42:25;;;;;;;41.45;32.78;;;;;;;16.70;100.00;101624.59;4943302;28;20245;-79
2021/07/09 02:44:50;;;;;;;41.15;33.08;;;;;;;16.68;100.00;101634.78;4944435;28;20066;-80
2021/07/09 02:47:16;;;;;;;43.88;32.92;;;;;;;16.68;100.00;101632.06;4944081;28;20450;-82
2021/07/09 02:49:41;;;;;;;40.80;31.98;;;;;;;16.67;100.00;101627.69;4945369;28;20428;-81
2021/07/09 02:52:08;;;;;;;46.85;33.50;;;;;;;16.67;100.00;101624.97;4935569;28;20110;-82
2021/07/09 02:54:33;;;;;;;45.42;34.65;;;;;;;16.64;100.00;101628.88;4962820;28;20858;-80
2021/07/09 02:56:59;;;;;;;44.70;33.28;;;;;;;16.64;100.00;101623.47;4945577;28;20042;-82
2021/07/09 02:59:24;;;;;;;42.58;32.50;;;;;;;16.66;100.00;101626.84;4961607;28;20050;-79
2021/07/09 03:01:49;;;;;;;46.40;33.30;;;;;;;16.65;100.00;101635.13;4939493;28;20039;-79
2021/07/09 03:04:15;;;;;;;50.03;36.15;;;;;;;16.64;100.00;101628.88;4960903;28;20042;-79
2021/07/09 03:06:41;;;;;;;48.70;36.03;;;;;;;16.63;100.00;101626.34;4960532;28;20615;-82
2021/07/09 03:09:08;;;;;;;51.28;36.47;;;;;;;16.62;100.00;101622.81;4945389;28;20066;-78
2021/07/09 03:11:34;;;;;;;48.42;35.72;;;;;;;16.60;100.00;101622.16;4929961;28;20129;-80
2021/07/09 03:14:01;;;;;;;49.03;36.80;;;;;;;16.58;100.00;101626.06;4961081;28;20496;-81
2021/07/09 03:16:27;;;;;;;49.08;35.17;;;;;;;16.59;100.00;101625.03;4954893;28;20035;-82
2021/07/09 03:18:53;;;;;;;55.67;37.00;;;;;;;16.58;100.00;101623.38;4936029;28;20776;-82
2021/07/09 03:21:18;;;;;;;52.50;37.75;;;;;;;16.58;100.00;101615.25;4943234;28;20078;-80
2021/07/09 03:23:44;;;;;;;53.60;38.88;;;;;;;16.56;100.00;101614.56;4954384;28;20053;-79
2021/07/09 03:26:09;;;;;;;57.78;39.13;;;;;;;16.52;100.00;101615.97;4959992;28;20064;-82
2021/07/09 03:28:35;;;;;;;56.55;38.78;;;;;;;16.52;100.00;101619.53;4954141;28;20046;-78
2021/07/09 03:31:00;;;;;;;54.55;38.42;;;;;;;16.54;100.00;101622.03;4955589;28;20513;-80
2021/07/09 03:33:26;;;;;;;51.92;39.03;;;;;;;16.53;100.00;101615.78;4956169;28;20039;-81
2021/07/09 03:35:52;;;;;;;57.10;40.13;;;;;;;16.51;100.00;101609.69;4960135;28;20053;-79
2021/07/09 03:38:19;;;;;;;57.50;39.38;;;;;;;16.50;100.00;101616.16;4939953;28;20043;-83
2021/07/09 03:40:44;;;;;;;59.80;42.33;;;;;;;16.51;100.00;101615.13;4960112;28;20120;-79
2021/07/09 03:43:10;;;;;;;60.30;43.40;;;;;;;16.51;100.00;101619.69;4956543;28;20372;-79
2021/07/09 03:45:35;;;;;;;59.85;45.30;;;;;;;16.51;100.00;101620.53;4958730;28;20484;-80
2021/07/09 03:48:00;;;;;;;58.30;44.08;;;;;;;16.49;100.00;101614.47;4942797;28;20484;-83
2021/07/09 03:50:26;;;;;;;61.15;42.17;;;;;;;16.45;100.00;101616.69;4947770;28;20129;-79
2021/07/09 03:52:51;;;;;;;60.00;42.33;;;;;;;16.48;100.00;101623.59;4957176;28;20043;-80
2021/07/09 03:55:16;;;;;;;59.53;41.30;;;;;;;16.47;100.00;101619.22;4938845;28;20250;-79
2021/07/09 03:57:42;;;;;;;56.63;41.65;;;;;;;16.49;100.00;101619.91;4920674;28;20043;-81
2021/07/09 04:00:10;;;;;;;62.03;42.35;;;;;;;16.47;100.00;101625.47;4962245;28;20150;-81
2021/07/09 04:02:36;;;;;;;63.85;42.50;;;;;;;16.46;100.00;101623.81;4958436;28;20053;-81
2021/07/09 04:05:02;;;;;;;61.17;42.08;;;;;;;16.44;100.00;101623.13;4968928;28;20039;-81
2021/07/09 04:07:28;;;;;;;63.30;42.85;;;;;;;16.45;100.00;101624.81;4928284;28;20511;-82
2021/07/09 04:09:55;;;;;;;62.40;42.20;;;;;;;16.46;100.00;101637.34;4955904;28;20062;-82
2021/07/09 04:12:20;;;;;;;66.55;42.50;;;;;;;16.43;100.00;101626.88;4955381;28;20460;-82
2021/07/09 04:14:46;;;;;;;66.20;41.60;;;;;;;16.42;100.00;101630.59;4964102;28;20034;-81
2021/07/09 04:17:11;;;;;;;63.70;42.53;;;;;;;16.44;100.00;101628.56;4966218;28;20523;-81
2021/07/09 04:19:36;;;;;;;60.58;43.25;;;;;;;16.46;100.00;101629.22;4942347;28;20437;-80
2021/07/09 04:22:02;;;;;;;64.35;41.25;;;;;;;16.43;100.00;101636.88;4927414;28;20070;-82
2021/07/09 04:24:28;;;;;;;61.60;41.63;;;;;;;16.43;100.00;101637.72;4942968;28;20090;-81
2021/07/09 04:26:53;;;;;;;58.55;40.35;;;;;;;16.45;100.00;101634.81;4910658;28;20508;-82
2021/07/09 04:29:18;;;;;;;63.00;41.90;;;;;;;16.44;100.00;101639.38;4961460;28;20058;-81
2021/07/09 04:31:44;;;;;;;62.85;39.70;;;;;;;16.47;100.00;101639.03;4917044;28;20061;-81
2021/07/09 04:34:09;;;;;;;61.13;40.25;;;;;;;16.50;100.00;101631.56;4935737;28;20398;-81
2021/07/09 04:36:34;;;;;;;58.85;41.03;;;;;;;16.47;100.00;101627.34;4942202;28;20086;-80
2021/07/09 04:39:00;;;;;;;61.50;40.33;;;;;;;16.46;100.00;101631.09;4954342;28;20153;-83
2021/07/09 04:41:25;;;;;;;58.88;40.45;;;;;;;16.44;100.00;101623.13;4939377;28;20496;-81
2021/07/09 04:43:51;;;;;;;57.25;39.67;;;;;;;16.50;100.00;101623.44;4940028;28;20035;-82
2021/07/09 04:46:16;;;;;;;56.13;38.42;;;;;;;16.46;100.00;101623.81;4954824;28;20495;-80
2021/07/09 04:48:42;;;;;;;56.38;38.70;;;;;;;16.44;100.00;101619.59;4934035;28;20042;-83
2021/07/09 04:51:07;;;;;;;56.72;38.83;;;;;;;16.46;100.00;101626.50;4939810;28;20035;-79
2021/07/09 04:53:32;;;;;;;53.72;38.13;;;;;;;16.50;100.00;101626.16;4940799;28;20042;-82
2021/07/09 04:55:58;;;;;;;55.33;37.45;;;;;;;16.52;100.00;101624.94;4949067;28;20053;-79
2021/07/09 04:58:23;;;;;;;58.08;37.92;;;;;;;16.53;100.00;101629.31;4942056;28;20043;-82
2021/07/09 05:00:49;;;;;;;57.30;38.90;;;;;;;16.54;100.00;101628.28;4955985;28;20089;-82
2021/07/09 05:03:15;;;;;;;53.85;37.47;;;;;;;16.55;100.00;101629.16;4960602;28;20053;-83
2021/07/09 05:05:41;;;;;;;53.53;37.63;;;;;;;16.54;100.00;101624.75;4957576;28;20509;-82
2021/07/09 05:08:06;;;;;;;51.28;35.67;;;;;;;16.58;100.00;101620.66;4940551;28;20125;-82
2021/07/09 05:10:32;;;;;;;52.58;36.30;;;;;;;16.57;100.00;101622.53;4954120;28;20057;-81
2021/07/09 05:12:58;;;;;;;54.95;36.40;;;;;;;16.58;100.00;101623.38;4956096;28;20038;-80
2021/07/09 05:15:23;;;;;;;54.45;35.45;;;;;;;16.56;100.00;101620.84;4937906;28;20039;-79
2021/07/09 05:17:48;;;;;;;49.97;34.97;;;;;;;16.57;100.00;101627.94;4950955;28;20038;-81
2021/07/09 05:20:14;;;;;;;53.22;35.33;;;;;;;16.62;100.00;101633.63;4948095;28;20035;-82
2021/07/09 05:22:40;;;;;;;51.55;34.65;;;;;;;16.62;100.00;101641.75;4965367;28;20255;-80
2021/07/09 05:25:07;;;;;;;54.30;34.97;;;;;;;16.66;100.00;101642.25;4932586;28;20046;-80
2021/07/09 05:27:32;;;;;;;56.03;35.85;;;;;;;16.67;100.00;101641.22;4935445;28;20436;-82
2021/07/09 05:29:59;;;;;;;55.22;36.05;;;;;;;16.68;100.00;101637.47;4944625;28;20173;-81
2021/07/09 05:32:26;;;;;;;53.75;35.42;;;;;;;16.67;100.00;101641.22;4942627;28;20121;-82
2021/07/09 05:34:53;;;;;;;55.83;33.80;;;;;;;16.74;100.00;101639.44;4930179;28;20492;-81
2021/07/09 05:37:19;;;;;;;50.85;32.83;;;;;;;16.79;100.00;101647.06;4962767;28;20480;-80
2021/07/09 05:39:45;;;;;;;50.25;32.60;;;;;;;16.79;100.00;101647.06;4951237;28;20055;-81
2021/07/09 05:42:10;;;;;;;51.90;33.25;;;;;;;16.78;100.00;101648.94;4960197;28;20054;-83
2021/07/09 05:44:36;;;;;;;50.40;33.20;;;;;;;16.79;100.00;101657.91;4947311;28;20050;-82
2021/07/09 05:47:03;;;;;;;47.88;32.53;;;;;;;16.86;100.00;101658.84;4958433;28;20035;-83
2021/07/09 05:49:28;;;;;;;48.40;31.88;;;;;;;16.85;100.00;101658.00;4960388;28;20097;-79
2021/07/09 05:51:53;;;;;;;48.40;31.65;;;;;;;16.87;100.00;101655.97;4942592;28;20055;-80
2021/07/09 05:54:19;;;;;;;43.50;30.40;;;;;;;16.90;100.00;101662.88;4937416;28;20428;-80
2021/07/09 05:56:44;;;;;;;46.45;30.77;;;;;;;16.92;100.00;101666.28;4958347;28;20057;-81
2021/07/09 05:59:10;;;;;;;46.08;31.55;;;;;;;16.98;100.00;101661.97;4950311;28;20054;-82
2021/07/09 06:01:35;;;;;;;47.38;31.40;;;;;;;16.97;100.00;101661.09;4941760;28;20050;-80
2021/07/09 06:04:00;;;;;;;41.90;28.52;;;;;;;16.97;100.00;101669.25;4954806;28;20031;-81
2021/07/09 06:06:26;;;;;;;46.63;29.88;;;;;;;17.04;100.00;101664.78;4950032;28;20579;-80
2021/07/09 06:08:51;;;;;;;43.88;28.65;;;;;;;17.04;100.00;101663.94;4916317;28;20094;-83
2021/07/09 06:11:17;;;;;;;41.25;28.90;;;;;;;17.04;100.00;101666.66;4958324;28;20062;-81
2021/07/09 06:13:42;;;;;;;44.00;29.05;;;;;;;17.06;100.00;101670.88;4941623;28;20042;-81
2021/07/09 06:16:07;;;;;;;44.88;28.48;;;;;;;17.12;100.00;101675.53;4956147;28;20042;-81
2021/07/09 06:18:33;;;;;;;43.40;28.00;;;;;;;17.12;100.00;101672.00;4941102;28;20045;-80
2021/07/09 06:20:59;;;;;;;41.28;27.27;;;;;;;17.15;100.00;101671.63;4941261;28;20597;-81
2021/07/09 06:23:24;;;;;;;36.30;25.83;;;;;;;17.21;100.00;101672.75;4940947;28;20065;-82
2021/07/09 06:25:51;;;;;;;40.47;26.65;;;;;;;17.18;100.00;101679.38;4959665;28;20081;-81
2021/07/09 06:28:16;;;;;;;39.55;27.13;;;;;;;17.24;100.00;101675.91;4957623;28;20069;-80
2021/07/09 06:30:43;;;;;;;41.78;27.45;;;;;;;17.29;100.00;101683.47;4958999;28;20110;-86
2021/07/09 06:33:09;;;;;;;36.25;26.60;;;;;;;17.32;100.00;101681.25;4956598;28;20125;-85
2021/07/09 06:35:36;;;;;;;38.53;26.33;;;;;;;17.34;100.00;101678.34;4937512;28;20496;-83
2021/07/09 06:38:01;;;;;;;39.22;26.38;;;;;;;17.36;100.00;101685.25;4958839;28;20113;-80
2021/07/09 06:40:27;;;;;;;42.85;27.75;;;;;;;17.44;100.00;101681.63;4937685;28;20042;-81
2021/07/09 06:42:53;;;;;;;39.70;27.60;;;;;;;17.50;100.00;101688.16;4940902;28;20043;-82
2021/07/09 06:45:19;;;;;;;37.17;26.33;;;;;;;17.51;100.00;101676.28;4940191;28;20157;-81
2021/07/09 06:47:45;;;;;;;40.80;28.08;;;;;;;17.56;100.00;101688.25;4957164;28;20053;-84
2021/07/09 06:50:12;;;;;;;36.40;27.85;;;;;;;17.60;100.00;101680.56;4955043;28;20415;-84
2021/07/09 06:52:37;;;;;;;36.33;27.35;;;;;;;17.64;100.00;101683.78;4941148;28;20030;-84
2021/07/09 06:55:04;;;;;;;38.25;26.92;;;;;;;17.59;100.00;101682.44;4940496;28;20387;-83
2021/07/09 06:57:29;;;;;;;37.95;25.50;;;;;;;17.70;100.00;101683.84;4938178;28;20465;-82
2021/07/09 06:59:54;;;;;;;36.30;26.75;;;;;;;17.76;100.00;101690.38;4959527;28;20129;-78
2021/07/09 07:02:21;;;;;;;37.20;27.33;;;;;;;17.77;100.00;101687.47;4930342;28;20396;-82
2021/07/09 07:04:46;;;;;;;35.67;26.20;;;;;;;17.82;100.00;101686.94;4958575;28;20055;-84
2021/07/09 07:07:11;;;;;;;37.17;27.50;;;;;;;17.91;100.00;101684.97;4938508;28;20051;-83
2021/07/09 07:09:38;;;;;;;38.58;26.75;;;;;;;17.97;99.67;101689.63;4949355;28;20251;-81
2021/07/09 07:12:05;;;;;;;37.35;26.40;;;;;;;17.93;98.41;101686.44;4940609;28;20112;-83
2021/07/09 07:14:32;;;;;;;35.47;26.92;;;;;;;18.02;99.81;101687.19;4956621;28;20439;-82
2021/07/09 07:16:58;;;;;;;33.90;24.15;;;;;;;18.09;99.43;101693.50;4958421;28;20031;-81
2021/07/09 07:19:25;;;;;;;35.55;26.42;;;;;;;18.05;97.55;101692.22;4957831;28;20376;-81
2021/07/09 07:21:50;;;;;;;35.47;24.42;;;;;;;18.06;98.69;101704.75;4960584;28;20308;-85
2021/07/09 07:24:16;;;;;;;35.55;25.95;;;;;;;18.13;98.59;101704.84;4950359;28;20055;-84
2021/07/09 07:26:41;;;;;;;32.95;24.35;;;;;;;18.15;98.51;101703.59;4961017;28;20631;-85
2021/07/09 07:29:07;;;;;;;34.67;23.95;;;;;;;18.25;97.73;101703.31;4935167;28;20082;-84
2021/07/09 07:31:33;;;;;;;32.10;23.08;;;;;;;18.30;96.95;101706.28;4959317;28;20120;-82
2021/07/09 07:33:59;;;;;;;33.60;23.80;;;;;;;18.27;96.47;101707.50;4960281;28;20276;-81
2021/07/09 07:36:24;;;;;;;34.08;24.98;;;;;;;18.31;97.40;101713.41;4962918;28;20058;-82
2021/07/09 07:38:49;;;;;;;31.58;24.42;;;;;;;18.41;97.11;101702.19;4961571;28;20043;-83
2021/07/09 07:41:17;;;;;;;28.33;21.98;;;;;;;18.44;96.52;101701.81;4945225;28;20039;-85
2021/07/09 07:43:43;;;;;;;32.70;22.77;;;;;;;18.58;97.03;101697.34;4960068;28;20082;-84
2021/07/09 07:46:09;;;;;;;29.98;22.55;;;;;;;18.69;96.04;101694.09;4939197;28;20081;-84
2021/07/09 07:48:36;;;;;;;34.13;24.15;;;;;;;18.70;95.69;101695.78;4942931;28;20042;-85
2021/07/09 07:51:01;;;;;;;30.60;22.88;;;;;;;18.79;96.02;101689.22;4953886;28;20043;-84
2021/07/09 07:53:27;;;;;;;29.67;22.67;;;;;;;18.89;94.90;101694.28;4942324;28;20372;-81
2021/07/09 07:55:52;;;;;;;31.35;22.88;;;;;;;18.92;93.99;101696.63;4940967;28;20057;-82
2021/07/09 07:58:17;;;;;;;28.17;22.20;;;;;;;18.93;93.76;101684.69;4958399;28;20288;-87
2021/07/09 08:00:43;;;;;;;29.45;20.48;;;;;;;18.94;93.68;101683.66;4960488;28;20477;-82
2021/07/09 08:03:08;;;;;;;26.42;20.95;;;;;;;19.01;93.40;101692.72;4945017;28;20073;-84
2021/07/09 08:05:34;;;;;;;24.90;19.00;;;;;;;19.11;92.02;101685.06;4943500;28;20613;-82
2021/07/09 08:07:59;;;;;;;25.10;18.13;;;;;;;19.10;90.24;101685.22;4960337;28;20061;-86
2021/07/09 08:10:25;;;;;;;23.50;17.95;;;;;;;19.08;89.59;101696.34;4942370;28;20102;-80
2021/07/09 08:12:51;;;;;;;27.17;19.85;;;;;;;19.09;90.29;101681.69;4940892;28;20274;-81
2021/07/09 08:15:17;;;;;;;23.35;19.15;;;;;;;19.19;90.43;101688.63;4943270;28;20046;-83
2021/07/09 08:17:43;;;;;;;22.55;17.90;;;;;;;19.17;89.36;101697.84;4942106;28;20046;-84
2021/07/09 08:20:09;;;;;;;24.77;18.27;;;;;;;19.24;88.44;101678.00;4961084;28;20045;-85
2021/07/09 08:22:36;;;;;;;23.70;17.77;;;;;;;19.34;88.34;101686.66;4945608;28;20047;-80
2021/07/09 08:25:06;;;;;;;23.92;17.95;;;;;;;19.49;89.71;101684.63;4948142;28;20054;-83
2021/07/09 08:27:31;;;;;;;22.23;16.27;;;;;;;19.59;87.45;101681.53;4964509;28;20043;-80
2021/07/09 08:29:57;;;;;;;23.77;17.27;;;;;;;19.56;86.34;101684.66;4958705;28;20129;-84
2021/07/09 08:32:22;;;;;;;20.45;16.13;;;;;;;19.59;85.84;101679.69;4926485;28;20058;-84
2021/07/09 08:34:47;;;;;;;21.55;16.80;;;;;;;19.63;85.29;101685.56;4937397;28;20042;-84
2021/07/09 08:37:13;;;;;;;20.55;16.20;;;;;;;19.77;85.94;101676.44;4947723;28;20123;-81
2021/07/09 08:39:39;;;;;;;20.27;15.98;;;;;;;19.96;85.75;101679.41;4938152;28;20153;-84
2021/07/09 08:42:04;;;;;;;19.15;13.82;;;;;;;20.01;81.92;101677.75;4950229;28;20042;-83
2021/07/09 08:44:29;;;;;;;17.20;13.05;;;;;;;20.11;82.06;101687.41;4955201;28;20495;-80
2021/07/09 08:46:57;;;;;;;16.27;13.63;;;;;;;20.13;80.15;101680.72;4930373;28;20126;-85
2021/07/09 08:49:23;;;;;;;17.83;13.77;;;;;;;20.18;80.93;101677.38;4935212;29;20079;-80
2021/07/09 08:51:49;;;;;;;22.27;15.70;;;;;;;20.18;80.98;101685.56;4963681;28;20121;-86
2021/07/09 08:54:16;;;;;;;29.48;26.35;;;;;;;20.12;78.69;101673.59;4966377;28;20031;-81
2021/07/09 08:56:42;;;;;;;13.90;11.27;;;;;;;20.08;77.84;101679.66;4932489;28;20472;-84
2021/07/09 08:59:09;;;;;;;13.95;10.73;;;;;;;20.18;77.68;101674.66;4947845;28;20053;-83
2021/07/09 09:02:07;;;;;;;16.50;12.02;;;;;;;20.29;76.42;101674.06;4964301;28;20436;-88
2021/07/09 09:04:38;;;;;;;58.35;52.15;;;;;;;20.41;76.54;101661.47;4922385;28;20045;-83
2021/07/09 09:07:05;;;;;;;19.13;16.13;;;;;;;20.42;77.12;101657.69;4949679;28;20041;-81
2021/07/09 09:09:32;;;;;;;14.02;10.90;;;;;;;20.51;75.77;101656.47;4967003;28;20435;-83
2021/07/09 09:12:11;;;;;;;14.93;11.10;;;;;;;20.52;76.12;101654.56;4948484;28;20384;-85
2021/07/09 09:14:39;;;;;;;13.75;10.80;;;;;;;20.48;75.10;101654.16;4965925;28;20495;-82
2021/07/09 09:17:32;;;;;;;13.45;9.88;;;;;;;20.45;75.40;101657.28;4948518;28;20491;-84
2021/07/09 09:20:11;;;;;;;10.57;5.72;;;;;;;20.56;71.48;101657.75;4960980;28;20952;-82
2021/07/09 09:22:48;;;;;;;9.48;7.50;;;;;;;20.64;71.67;101663.00;4959163;28;20042;-85
2021/07/09 09:25:15;;;;;;;12.07;8.63;;;;;;;20.68;73.08;101662.34;4965899;28;20500;-82
2021/07/09 09:27:41;;;;;;;14.23;8.43;;;;;;;20.66;70.42;101664.47;4960518;28;20074;-79
2021/07/09 09:30:09;;;;;;;11.13;7.80;;;;;;;20.74;70.37;101649.75;4955718;28;20128;-86
2021/07/09 09:32:44;;;;;;;6.65;5.65;;;;;;;20.95;71.20;101660.44;4946256;28;20122;-84
2021/07/09 09:35:10;;;;;;;8.70;6.18;;;;;;;21.00;69.49;101661.69;4944712;28;20032;-82
2021/07/09 09:37:35;;;;;;;7.03;5.50;;;;;;;20.96;67.19;101653.94;4946683;28;20054;-83
2021/07/09 09:40:01;;;;;;;7.57;5.15;;;;;;;21.09;68.55;101654.94;4935946;28;20039;-84
2021/07/09 09:42:26;;;;;;;8.82;6.40;;;;;;;21.19;66.97;101655.38;4963023;28;20324;-79
2021/07/09 09:44:57;;;;;;;9.18;6.25;;;;;;;21.15;67.63;101640.47;4966811;28;20404;-81
2021/07/09 09:47:25;;;;;;;11.13;8.00;;;;;;;21.30;69.44;101654.72;4948967;28;20097;-87
2021/07/09 09:49:53;;;;;;;11.85;7.68;;;;;;;21.34;68.82;101645.03;4946403;28;20043;-86
2021/07/09 09:52:52;;;;;;;9.32;7.32;;;;;;;21.50;68.48;101642.91;4966515;28;20051;-80
2021/07/09 09:55:17;;;;;;;;;;;;;;;21.47;67.89;101644.19;4951506;28;20046;-87
2021/07/09 09:57:44;;;;;;;8.97;6.40;;;;;;;21.40;65.13;101637.91;4966255;28;19937;-84
2021/07/09 10:00:27;;;;;;;9.05;6.88;;;;;;;21.45;66.24;101637.25;4965471;28;20034;-83
2021/07/09 10:02:53;;;;;;;10.68;7.80;;;;;;;21.58;66.85;101642.69;4946781;28;20035;-83
2021/07/09 10:05:18;;;;;;;13.93;9.45;;;;;;;21.66;67.68;101647.03;4964968;28;20768;-85
2021/07/09 10:07:45;;;;;;;11.52;8.93;;;;;;;21.63;67.61;101635.47;4949311;28;20445;-83
2021/07/09 10:10:12;;;;;;;12.90;8.68;;;;;;;21.60;66.13;101644.13;4965344;28;20049;-83
2021/07/09 10:12:38;;;;;;;11.82;8.93;;;;;;;21.70;67.80;101643.66;4964973;28;20097;-81
2021/07/09 10:15:04;;;;;;;12.40;9.10;;;;;;;21.74;67.48;101636.69;4943616;28;20043;-84
2021/07/09 10:17:30;;;;;;;12.38;9.40;;;;;;;21.83;67.41;101638.13;4947730;28;20388;-85
2021/07/09 10:19:58;;;;;;;11.38;8.57;;;;;;;21.85;67.50;101633.28;4948441;28;20035;-82
2021/07/09 10:22:23;;;;;;;11.05;8.88;;;;;;;21.94;67.78;101633.03;4948194;28;20074;-82
2021/07/09 10:24:52;;;;;;;11.13;9.13;;;;;;;22.02;66.97;101630.03;4952443;28;20083;-88
2021/07/09 10:27:23;;;;;;;10.70;8.82;;;;;;;22.09;66.30;101628.09;4947881;28;20046;-80
2021/07/09 10:29:49;;;;;;;10.85;7.32;;;;;;;22.14;65.55;101633.72;4945420;29;20046;-84
2021/07/09 10:32:39;;;;;;;8.70;6.40;;;;;;;22.18;64.15;101631.41;4942887;28;20599;-86
2021/07/09 10:35:06;;;;;;;8.85;6.35;;;;;;;22.19;64.08;101633.13;4948074;28;20042;-82
2021/07/09 10:37:33;;;;;;;9.25;5.65;;;;;;;22.15;62.67;101631.84;4959488;28;20038;-86
2021/07/09 10:40:09;;;;;;;8.10;5.22;;;;;;;22.23;62.80;101632.44;4963531;28;20523;-82
2021/07/09 10:42:40;;;;;;;7.63;5.22;;;;;;;22.16;61.72;101615.22;4964867;28;20448;-84
2021/07/09 10:45:07;;;;;;;10.13;6.07;;;;;;;22.38;62.48;101618.44;4931983;28;20129;-82
2021/07/09 10:47:43;;;;;;;12.20;6.88;;;;;;;22.51;62.28;101612.03;4965224;28;20035;-86
2021/07/09 10:50:10;;;;;;;17.77;6.90;;;;;;;22.60;63.48;101621.63;4948642;28;20032;-86
2021/07/09 10:52:45;;;;;;;14.65;6.75;;;;;;;22.72;63.04;101619.00;4947391;28;20054;-83
2021/07/09 10:55:29;;;;;;;10.80;6.15;;;;;;;22.69;63.03;101614.81;4967602;28;20039;-83
2021/07/09 10:58:19;;;;;;;8.30;5.50;;;;;;;22.59;62.00;101609.03;4950762;28;20038;-83
2021/07/09 11:01:04;;;;;;;7.40;5.47;;;;;;;22.71;61.51;101617.31;4968034;28;20054;-87
2021/07/09 11:03:42;;;;;;;8.23;6.15;;;;;;;22.81;61.78;101614.91;4950698;28;20480;-85
2021/07/09 11:06:20;;;;;;;7.70;6.03;;;;;;;22.91;61.69;101611.66;4967679;28;20054;-83